Time;durP1;ratioP1;P1;durP2;ratioP2;P2;SDS_P1;SDS_P2;PMS_P1;PMS_P2;Temp;Humidity;BMP_temperature;BMP_pressure;BME280_temperature;BME280_humidity;BME280_pressure;Samples;Min_cycle;Max_cycle;Signal;HPM_P1;HPM_P2
2023/05/14 00:00:39;;;;;;;22.85;13.70;;;;;;;21.50;53.29;102177.19;5023736;28;20136;-37
2023/05/14 00:03:06;;;;;;;23.63;14.50;;;;;;;21.49;53.38;102168.25;5023325;28;20400;-34
2023/05/14 00:05:32;;;;;;;23.27;14.63;;;;;;;21.49;53.41;102170.94;5019419;28;20050;-34
2023/05/14 00:07:59;;;;;;;21.05;14.20;;;;;;;21.49;53.24;102165.53;5021983;28;20049;-34
2023/05/14 00:10:26;;;;;;;20.55;14.05;;;;;;;21.49;53.37;102162.84;5011851;28;20349;-34
2023/05/14 00:12:52;;;;;;;20.55;14.32;;;;;;;21.48;53.02;102163.84;4999623;28;20045;-35
2023/05/14 00:15:19;;;;;;;20.48;14.13;;;;;;;21.48;53.07;102158.47;5001737;28;20064;-34
2023/05/14 00:17:46;;;;;;;22.77;14.23;;;;;;;21.48;53.35;102154.91;4999073;28;20132;-35
2023/05/14 00:20:12;;;;;;;19.63;12.75;;;;;;;21.46;53.12;102152.34;5005411;28;20131;-34
2023/05/14 00:22:39;;;;;;;21.67;13.52;;;;;;;21.46;53.10;102149.63;5014011;28;20041;-34
2023/05/14 00:25:06;;;;;;;20.15;13.38;;;;;;;21.46;53.31;102144.25;5022041;28;20045;-36
2023/05/14 00:27:34;;;;;;;20.70;13.43;;;;;;;21.44;53.33;102135.47;5021205;28;20067;-34
2023/05/14 00:30:01;;;;;;;19.90;13.43;;;;;;;21.44;53.03;102138.16;5023045;28;20045;-35
2023/05/14 00:32:28;;;;;;;22.52;14.75;;;;;;;21.45;52.96;102134.47;5019349;28;20401;-36
2023/05/14 00:34:54;;;;;;;20.60;12.80;;;;;;;21.42;52.92;102135.59;5021474;28;20076;-34
2023/05/14 00:37:21;;;;;;;20.55;13.55;;;;;;;21.42;53.16;102132.88;5022454;28;20049;-34
2023/05/14 00:39:47;;;;;;;19.95;13.82;;;;;;;21.42;52.99;102135.59;5020199;28;20050;-35
2023/05/14 00:42:14;;;;;;;19.45;13.82;;;;;;;21.41;53.42;102122.25;5024697;28;20120;-34
2023/05/14 00:44:41;;;;;;;21.55;14.10;;;;;;;21.40;53.31;102128.66;5020158;28;20088;-34
2023/05/14 00:47:07;;;;;;;20.75;13.93;;;;;;;21.39;53.51;102124.25;5019567;28;20056;-34
2023/05/14 00:49:34;;;;;;;20.55;13.48;;;;;;;21.39;53.30;102118.88;5023671;28;20421;-35
2023/05/14 00:52:01;;;;;;;19.08;13.32;;;;;;;21.38;53.48;102117.16;5028054;28;20046;-35
2023/05/14 00:54:29;;;;;;;21.15;13.80;;;;;;;21.37;53.24;102115.44;5025723;28;20049;-34
2023/05/14 00:56:55;;;;;;;20.70;13.13;;;;;;;21.36;53.29;102116.47;5024288;28;20061;-33
2023/05/14 00:59:22;;;;;;;19.52;13.02;;;;;;;21.36;53.38;102113.75;5022592;28;20056;-33
2023/05/14 01:01:49;;;;;;;19.67;13.00;;;;;;;21.35;53.31;102114.75;5024166;28;20350;-36
2023/05/14 01:04:15;;;;;;;21.45;14.27;;;;;;;21.34;53.35;102108.50;5022217;28;20061;-33
2023/05/14 01:07:01;;;;;;;19.13;13.38;;;;;;;21.33;53.47;102111.34;5020175;28;20056;-33
2023/05/14 01:09:53;;;;;;;17.88;12.15;;;;;;;21.32;53.36;102115.00;5016726;28;20049;-33
2023/05/14 01:12:55;;;;;;;19.70;12.68;;;;;;;21.31;53.64;102116.00;5016503;28;20056;-35
2023/05/14 01:15:29;;;;;;;19.20;12.73;;;;;;;21.30;53.38;102112.44;5013967;28;20057;-36
2023/05/14 01:18:00;;;;;;;19.65;13.43;;;;;;;21.29;53.77;102121.53;5017279;28;20064;-36
2023/05/14 01:20:27;;;;;;;18.15;12.30;;;;;;;21.29;53.60;102126.94;5016520;28;20355;-36
2023/05/14 01:22:53;;;;;;;20.75;12.88;;;;;;;21.29;53.16;102123.38;5016135;28;20136;-37
2023/05/14 01:25:20;;;;;;;17.95;12.55;;;;;;;21.28;53.51;102124.38;5014581;28;20140;-33
2023/05/14 01:28:16;;;;;;;17.75;12.48;;;;;;;21.24;52.99;102121.13;5015301;28;20053;-34
2023/05/14 01:30:55;;;;;;;18.50;12.73;;;;;;;21.27;53.43;102126.22;5015767;28;20072;-33
2023/05/14 01:33:25;;;;;;;18.27;12.55;;;;;;;21.25;53.39;102121.97;5018483;28;20132;-33
2023/05/14 01:35:53;;;;;;;18.60;12.98;;;;;;;21.24;53.56;102109.50;5020249;28;20138;-33
2023/05/14 01:38:21;;;;;;;18.00;12.98;;;;;;;21.23;53.36;102113.16;5018052;28;20263;-33
2023/05/14 01:40:49;;;;;;;16.73;11.95;;;;;;;21.21;53.43;102113.31;5020632;28;20053;-33
2023/05/14 01:43:16;;;;;;;18.33;12.45;;;;;;;21.20;53.55;102115.16;5020630;28;20056;-34
2023/05/14 01:45:43;;;;;;;16.55;11.82;;;;;;;21.19;53.44;102110.78;5022172;28;20297;-33
2023/05/14 01:48:09;;;;;;;16.17;11.60;;;;;;;21.17;53.50;102096.56;5021855;28;20053;-34
2023/05/14 01:50:36;;;;;;;19.73;11.88;;;;;;;21.18;53.68;102103.66;5022708;28;20056;-33
2023/05/14 01:53:03;;;;;;;19.85;13.68;;;;;;;21.16;53.51;102097.56;5024824;28;20673;-33
2023/05/14 01:55:29;;;;;;;18.52;12.23;;;;;;;21.16;53.34;102097.56;5022286;28;20361;-33
2023/05/14 01:57:56;;;;;;;18.55;12.18;;;;;;;21.15;53.62;102093.19;5022637;28;20057;-34
2023/05/14 02:00:26;;;;;;;16.98;11.68;;;;;;;21.15;53.79;102090.47;5020622;28;20053;-34
2023/05/14 02:02:52;;;;;;;18.55;12.40;;;;;;;21.14;53.36;102086.06;5021127;28;20049;-34
2023/05/14 02:05:20;;;;;;;15.93;12.07;;;;;;;21.13;53.92;102087.06;5021958;28;20076;-34
2023/05/14 02:07:46;;;;;;;16.85;12.18;;;;;;;21.13;53.37;102083.53;5023492;28;20137;-34
2023/05/14 02:10:13;;;;;;;17.52;11.73;;;;;;;21.13;53.86;102078.97;5021657;28;20438;-34
2023/05/14 02:12:39;;;;;;;17.48;12.10;;;;;;;21.12;53.39;102081.84;5022122;28;20124;-35
2023/05/14 02:15:07;;;;;;;17.08;11.70;;;;;;;21.11;53.42;102086.38;5021837;28;20333;-34
2023/05/14 02:17:34;;;;;;;17.17;11.15;;;;;;;21.11;53.92;102080.97;5019855;28;20049;-34
2023/05/14 02:20:01;;;;;;;17.98;12.07;;;;;;;21.10;53.54;102076.56;5019776;28;20052;-34
2023/05/14 02:22:27;;;;;;;18.15;11.68;;;;;;;21.11;53.81;102074.75;5022610;28;20378;-33
2023/05/14 02:24:54;;;;;;;17.15;11.93;;;;;;;21.10;53.59;102083.81;5021165;28;20049;-34
2023/05/14 02:27:20;;;;;;;20.83;12.15;;;;;;;21.09;53.81;102085.66;5022460;28;20056;-34
2023/05/14 02:29:47;;;;;;;20.63;12.98;;;;;;;21.09;53.43;102080.25;5016944;28;20063;-34
2023/05/14 02:32:14;;;;;;;17.15;11.38;;;;;;;21.08;53.42;102077.72;5018967;28;20053;-34
2023/05/14 02:34:40;;;;;;;17.15;11.13;;;;;;;21.08;53.95;102078.56;5020743;28;20049;-34
2023/05/14 02:37:07;;;;;;;17.73;11.57;;;;;;;21.07;53.43;102078.72;5020990;28;20057;-33
2023/05/14 02:39:33;;;;;;;15.80;10.55;;;;;;;21.07;53.50;102084.13;5021621;28;20061;-34
2023/05/14 02:42:00;;;;;;;16.30;11.10;;;;;;;21.05;53.92;102081.53;5023663;28;20052;-34
2023/05/14 02:44:26;;;;;;;14.38;10.30;;;;;;;21.05;53.79;102078.00;5022095;28;20049;-34
2023/05/14 02:46:53;;;;;;;15.45;11.02;;;;;;;21.05;53.85;102068.06;5022289;28;20076;-35
2023/05/14 02:49:20;;;;;;;15.98;10.82;;;;;;;21.04;53.48;102069.06;5024754;28;20053;-35
2023/05/14 02:51:46;;;;;;;16.35;11.23;;;;;;;21.04;53.57;102073.63;5030856;28;20137;-33
2023/05/14 02:54:15;;;;;;;16.20;10.75;;;;;;;21.03;53.59;102064.69;5023136;28;20045;-33
2023/05/14 02:56:41;;;;;;;13.95;10.02;;;;;;;21.03;53.30;102069.22;5024713;28;20385;-34
2023/05/14 02:59:08;;;;;;;15.10;10.35;;;;;;;21.02;53.95;102067.50;5025504;28;20590;-34
2023/05/14 03:01:35;;;;;;;15.30;11.00;;;;;;;21.01;53.60;102069.34;5023029;28;20477;-33
2023/05/14 03:04:02;;;;;;;15.13;10.23;;;;;;;21.00;53.85;102067.66;5025844;28;20073;-33
2023/05/14 03:06:30;;;;;;;15.30;10.63;;;;;;;21.00;53.71;102059.56;5024290;28;20056;-34
2023/05/14 03:08:56;;;;;;;15.23;10.27;;;;;;;21.00;53.68;102062.25;5024770;28;20449;-34
2023/05/14 03:11:23;;;;;;;16.05;11.15;;;;;;;20.99;54.08;102070.50;5022845;28;20100;-34
2023/05/14 03:13:50;;;;;;;15.27;10.30;;;;;;;20.98;53.86;102066.94;5020504;28;20112;-36
2023/05/14 03:16:16;;;;;;;15.70;10.88;;;;;;;20.98;53.66;102066.09;5023403;28;20049;-33
2023/05/14 03:18:43;;;;;;;15.48;10.82;;;;;;;20.97;53.94;102067.09;5022152;28;20125;-33
2023/05/14 03:21:09;;;;;;;15.55;10.68;;;;;;;20.96;53.87;102074.31;5027913;28;20049;-33
2023/05/14 03:23:36;;;;;;;15.05;10.70;;;;;;;20.95;53.59;102062.69;5024637;28;20042;-33
2023/05/14 03:26:03;;;;;;;16.17;11.20;;;;;;;20.95;53.92;102068.09;5023624;28;20071;-34
2023/05/14 03:28:30;;;;;;;13.55;9.95;;;;;;;20.93;53.81;102070.06;5023334;28;20062;-34
2023/05/14 03:30:57;;;;;;;15.32;10.43;;;;;;;20.95;53.86;102067.25;5028080;28;20059;-35
2023/05/14 03:33:23;;;;;;;15.20;10.30;;;;;;;20.94;54.30;102062.81;5019658;28;20961;-34
2023/05/14 03:35:50;;;;;;;13.63;9.32;;;;;;;20.93;53.61;102059.28;5026265;28;20144;-34
2023/05/14 03:38:17;;;;;;;14.80;9.90;;;;;;;20.92;53.79;102057.59;5024400;28;20041;-33
2023/05/14 03:40:44;;;;;;;13.52;9.55;;;;;;;20.93;53.75;102056.59;5022314;28;20052;-33
2023/05/14 03:43:10;;;;;;;13.68;9.95;;;;;;;20.93;54.02;102061.13;5023035;28;20348;-34
2023/05/14 03:45:37;;;;;;;13.23;9.15;;;;;;;20.92;53.66;102051.34;5021233;28;20061;-34
2023/05/14 03:48:04;;;;;;;13.15;9.75;;;;;;;20.92;53.97;102048.66;5023869;28;20046;-34
2023/05/14 03:50:31;;;;;;;12.40;9.27;;;;;;;20.92;53.87;102043.25;5021708;28;20057;-34
2023/05/14 03:52:58;;;;;;;13.77;9.95;;;;;;;20.92;54.02;102043.25;5022792;28;20137;-34
2023/05/14 03:55:24;;;;;;;15.15;9.88;;;;;;;20.90;53.72;102043.41;5021637;28;20045;-34
2023/05/14 03:57:51;;;;;;;13.55;9.70;;;;;;;20.90;53.88;102039.84;5023073;28;20046;-34
2023/05/14 04:00:18;;;;;;;12.20;8.93;;;;;;;20.90;54.13;102039.84;5021299;28;20430;-33
2023/05/14 04:02:44;;;;;;;14.57;9.45;;;;;;;20.92;53.78;102043.25;5021388;28;20049;-34
2023/05/14 04:05:11;;;;;;;13.18;9.30;;;;;;;20.90;53.55;102038.03;5023125;28;20437;-34
2023/05/14 04:07:37;;;;;;;13.07;9.45;;;;;;;20.88;53.78;102040.00;5021782;28;20068;-34
2023/05/14 04:10:05;;;;;;;17.30;9.27;;;;;;;20.89;53.71;102038.16;5020294;28;20099;-34
2023/05/14 04:12:31;;;;;;;13.07;8.80;;;;;;;20.87;53.69;102032.91;5019825;28;20056;-34
2023/05/14 04:14:58;;;;;;;13.40;9.25;;;;;;;20.88;54.13;102041.84;5018507;28;20353;-34
2023/05/14 04:17:24;;;;;;;11.32;8.50;;;;;;;20.86;53.79;102038.44;5019578;28;20055;-35
2023/05/14 04:19:51;;;;;;;11.63;8.82;;;;;;;20.87;54.02;102040.16;5019502;28;20392;-34
2023/05/14 04:22:17;;;;;;;12.70;9.18;;;;;;;20.86;54.08;102044.66;5019389;28;20048;-34
2023/05/14 04:24:44;;;;;;;11.98;8.18;;;;;;;20.86;53.98;102050.06;5017852;28;20045;-35
2023/05/14 04:27:18;;;;;;;13.23;9.27;;;;;;;20.86;53.77;102050.06;5018820;28;20077;-34
2023/05/14 04:29:45;;;;;;;12.63;9.00;;;;;;;20.86;54.17;102046.50;5019299;28;20048;-35
2023/05/14 04:32:11;;;;;;;12.25;8.93;;;;;;;20.87;53.53;102045.53;5020943;28;20049;-34
2023/05/14 04:34:38;;;;;;;12.27;8.40;;;;;;;20.88;54.16;102049.94;5018811;28;20382;-34
2023/05/14 04:37:05;;;;;;;13.68;8.95;;;;;;;20.88;53.82;102058.03;5019366;28;20053;-34
2023/05/14 04:39:32;;;;;;;13.75;9.13;;;;;;;20.89;54.10;102052.47;5017320;28;20053;-34
2023/05/14 04:41:58;;;;;;;11.60;8.00;;;;;;;20.89;53.62;102055.16;5020427;28;20055;-34
2023/05/14 04:44:25;;;;;;;12.10;9.15;;;;;;;20.90;54.12;102046.13;5018787;28;20044;-34
2023/05/14 04:46:51;;;;;;;12.25;8.90;;;;;;;20.92;53.50;102056.75;5020980;28;20081;-34
2023/05/14 04:49:19;;;;;;;11.10;8.00;;;;;;;20.92;54.24;102048.66;5021282;28;20156;-34
2023/05/14 04:51:47;;;;;;;11.32;8.25;;;;;;;20.92;53.75;102051.34;5018076;28;20140;-34
2023/05/14 04:54:13;;;;;;;11.15;7.72;;;;;;;20.93;53.76;102048.50;5022336;28;20338;-34
2023/05/14 04:56:40;;;;;;;12.25;8.23;;;;;;;20.93;53.83;102043.09;5026791;28;20460;-34
2023/05/14 04:59:06;;;;;;;10.13;7.50;;;;;;;20.93;53.79;102044.97;5025161;28;20341;-34
2023/05/14 05:01:33;;;;;;;11.10;7.80;;;;;;;20.93;53.47;102044.97;5025811;28;20056;-34
2023/05/14 05:03:59;;;;;;;12.60;8.43;;;;;;;20.92;53.79;102044.09;5024110;28;20057;-36
2023/05/14 05:06:26;;;;;;;11.98;7.68;;;;;;;20.93;53.53;102053.03;5021100;28;21016;-34
2023/05/14 05:08:53;;;;;;;10.65;8.05;;;;;;;20.93;53.61;102050.34;5016278;28;20089;-34
2023/05/14 05:11:20;;;;;;;10.02;7.90;;;;;;;20.93;53.93;102056.59;5016984;28;20060;-35
2023/05/14 05:13:46;;;;;;;11.57;8.43;;;;;;;20.93;54.02;102056.59;5020402;28;20168;-34
2023/05/14 05:16:13;;;;;;;9.98;7.10;;;;;;;20.93;53.79;102063.81;5020236;28;20050;-33
2023/05/14 05:18:40;;;;;;;9.55;7.30;;;;;;;20.95;53.55;102059.16;5020747;28;20069;-34
2023/05/14 05:21:06;;;;;;;11.70;7.97;;;;;;;20.95;53.84;102072.63;5021336;28;20050;-33
2023/05/14 05:23:33;;;;;;;10.15;7.72;;;;;;;20.96;53.71;102066.25;5021223;28;20045;-34
2023/05/14 05:25:59;;;;;;;9.93;7.20;;;;;;;20.95;53.54;102054.63;5023988;28;20446;-33
2023/05/14 05:28:26;;;;;;;9.23;6.93;;;;;;;20.95;53.37;102056.47;5023481;28;20050;-33
2023/05/14 05:30:53;;;;;;;10.23;7.03;;;;;;;20.96;53.40;102044.69;5029323;28;20368;-35
2023/05/14 05:33:19;;;;;;;10.25;7.38;;;;;;;20.96;53.70;102039.28;5027155;28;20467;-33
2023/05/14 05:35:47;;;;;;;8.95;7.15;;;;;;;20.96;53.82;102052.75;5027000;28;20050;-34
2023/05/14 05:38:15;;;;;;;10.65;7.30;;;;;;;20.97;53.81;102057.16;5024991;28;20046;-34
2023/05/14 05:40:41;;;;;;;8.85;6.57;;;;;;;20.98;53.80;102039.97;5021569;28;20444;-33
2023/05/14 05:43:08;;;;;;;10.35;6.95;;;;;;;20.98;53.69;102049.91;5023143;28;20038;-34
2023/05/14 05:45:34;;;;;;;10.65;7.25;;;;;;;21.00;53.68;102061.41;5020305;28;20057;-34
2023/05/14 05:48:01;;;;;;;9.73;7.10;;;;;;;21.00;53.62;102067.66;5026742;28;20139;-34
2023/05/14 05:50:27;;;;;;;10.73;7.25;;;;;;;21.00;53.90;102059.56;5024605;28;20433;-34
2023/05/14 05:52:54;;;;;;;11.18;7.15;;;;;;;21.01;53.42;102060.41;5024052;28;20060;-34
2023/05/14 05:55:20;;;;;;;10.40;7.28;;;;;;;21.01;53.88;102061.25;5026623;28;20323;-34
2023/05/14 05:57:47;;;;;;;9.82;7.28;;;;;;;21.02;53.69;102059.41;5013493;28;20041;-34
2023/05/14 06:00:14;;;;;;;10.38;7.22;;;;;;;21.01;53.62;102061.25;5025211;28;20045;-34
2023/05/14 06:02:40;;;;;;;9.05;6.50;;;;;;;21.03;53.74;102066.53;5023561;28;20115;-34
2023/05/14 06:05:10;;;;;;;9.18;7.05;;;;;;;21.02;53.63;102060.25;5020191;28;20095;-34
2023/05/14 06:07:37;;;;;;;8.38;6.63;;;;;;;21.04;53.68;102055.59;5017072;28;20053;-34
2023/05/14 06:10:05;;;;;;;7.70;6.15;;;;;;;21.04;53.48;102062.81;5020182;28;20496;-34
2023/05/14 06:12:31;;;;;;;8.80;6.95;;;;;;;21.05;53.48;102067.22;5022077;28;20050;-34
2023/05/14 06:14:58;;;;;;;9.65;6.90;;;;;;;21.06;53.64;102077.00;5020646;28;20136;-34
2023/05/14 06:17:25;;;;;;;8.70;6.75;;;;;;;21.05;53.48;102078.84;5017861;28;20136;-33
2023/05/14 06:19:52;;;;;;;8.10;6.13;;;;;;;21.05;53.08;102076.16;5008904;28;20507;-34
2023/05/14 06:22:18;;;;;;;9.63;6.72;;;;;;;21.07;53.15;102073.34;5022908;28;20184;-34
2023/05/14 06:24:45;;;;;;;9.80;6.60;;;;;;;21.06;53.24;102063.53;5023419;28;20057;-34
2023/05/14 06:27:12;;;;;;;9.15;6.45;;;;;;;21.06;53.63;102069.75;5021346;28;20764;-36
2023/05/14 06:29:38;;;;;;;10.02;6.40;;;;;;;21.07;53.40;102078.72;5026544;28;20506;-35
2023/05/14 06:32:05;;;;;;;8.25;6.63;;;;;;;21.06;53.45;102077.84;5023533;28;20445;-33
2023/05/14 06:34:32;;;;;;;8.25;6.40;;;;;;;21.06;53.31;102080.53;5026007;28;20045;-36
2023/05/14 06:36:59;;;;;;;7.80;6.07;;;;;;;21.07;53.10;102079.56;5024944;28;20426;-35
2023/05/14 06:39:25;;;;;;;8.10;6.30;;;;;;;21.06;53.50;102072.44;5022519;28;20060;-34
2023/05/14 06:41:52;;;;;;;7.80;6.07;;;;;;;21.06;53.22;102069.75;5024232;28;20046;-34
2023/05/14 06:44:18;;;;;;;9.98;6.50;;;;;;;21.08;53.50;102075.03;5027764;28;20053;-34
2023/05/14 06:46:45;;;;;;;9.63;6.53;;;;;;;21.08;53.58;102066.94;5021384;28;20057;-33
2023/05/14 06:49:11;;;;;;;8.73;6.20;;;;;;;21.07;53.29;102071.47;5023630;28;20097;-35
2023/05/14 06:51:39;;;;;;;8.93;6.53;;;;;;;21.07;53.56;102074.19;5023757;28;20488;-34
2023/05/14 06:54:06;;;;;;;7.80;5.95;;;;;;;21.09;53.28;102071.31;5024219;28;20046;-34
2023/05/14 06:56:33;;;;;;;9.50;6.32;;;;;;;21.09;53.46;102079.41;5021958;28;20773;-33
2023/05/14 06:59:00;;;;;;;11.05;7.55;;;;;;;21.09;53.23;102072.16;5022536;28;20060;-34
2023/05/14 07:01:27;;;;;;;9.60;7.50;;;;;;;21.11;53.37;102067.50;5022364;28;20156;-34
2023/05/14 07:03:53;;;;;;;10.35;7.18;;;;;;;21.13;53.70;102062.81;5024969;28;20045;-34
2023/05/14 07:06:20;;;;;;;10.75;7.53;;;;;;;21.14;53.62;102066.34;5021328;28;20786;-34
2023/05/14 07:08:47;;;;;;;12.32;8.30;;;;;;;21.14;53.56;102069.88;5023579;28;20045;-34
2023/05/14 07:11:14;;;;;;;12.73;8.32;;;;;;;21.17;53.29;102071.44;5022616;28;20442;-34
2023/05/14 07:13:40;;;;;;;13.68;9.00;;;;;;;21.17;53.64;102066.06;5026956;28;20152;-34
2023/05/14 07:16:10;;;;;;;16.20;10.13;;;;;;;21.18;53.77;102071.28;5021182;28;20123;-34
2023/05/14 07:18:37;;;;;;;16.73;9.98;;;;;;;21.20;53.72;102065.78;5025580;28;20052;-34
2023/05/14 07:21:05;;;;;;;14.38;10.20;;;;;;;21.20;53.45;102069.31;5021521;28;20084;-34
2023/05/14 07:23:35;;;;;;;16.17;10.40;;;;;;;21.23;53.40;102073.59;5023815;28;20058;-34
2023/05/14 07:26:02;;;;;;;17.35;9.98;;;;;;;21.25;53.43;102070.72;5021498;28;20049;-34
2023/05/14 07:28:28;;;;;;;25.70;10.70;;;;;;;21.26;53.19;102069.72;5022455;28;20160;-35
2023/05/14 07:30:55;;;;;;;17.67;11.32;;;;;;;21.28;53.38;102074.00;5024725;28;20930;-34
2023/05/14 07:33:22;;;;;;;19.65;11.00;;;;;;;21.29;53.66;102070.28;5020929;28;20437;-34
2023/05/14 07:35:49;;;;;;;17.02;11.10;;;;;;;21.30;54.02;102072.00;5022123;28;20191;-34
2023/05/14 07:38:16;;;;;;;23.88;11.75;;;;;;;21.31;54.20;102064.78;5025807;28;20057;-34
2023/05/14 07:40:42;;;;;;;20.48;11.18;;;;;;;21.31;54.42;102071.00;5023102;28;20132;-34
2023/05/14 07:43:09;;;;;;;22.77;11.73;;;;;;;21.31;54.24;102062.94;5022548;28;20084;-34
2023/05/14 07:45:38;;;;;;;17.48;10.73;;;;;;;21.33;54.02;102062.81;5025382;28;20072;-34
2023/05/14 07:48:04;;;;;;;21.35;11.20;;;;;;;21.34;54.17;102061.78;5021703;28;20056;-34
2023/05/14 07:50:31;;;;;;;18.63;10.88;;;;;;;21.35;54.24;102071.63;5022187;28;20775;-34
2023/05/14 07:52:58;;;;;;;34.35;20.40;;;;;;;21.33;54.18;102068.19;5020959;28;20052;-34
2023/05/14 07:55:24;;;;;;;31.50;16.33;;;;;;;21.32;53.38;102066.47;5022600;28;20578;-35
2023/05/14 07:57:51;;;;;;;66.28;39.15;;;;;;;21.30;53.01;102057.66;5019003;28;20416;-35
2023/05/14 08:00:18;;;;;;;64.10;35.38;;;;;;;21.26;52.69;102062.50;5019814;28;20057;-34
2023/05/14 08:02:44;;;;;;;44.33;24.70;;;;;;;21.24;52.77;102064.50;5023650;28;20168;-34
2023/05/14 08:05:11;;;;;;;45.72;25.48;;;;;;;21.25;52.96;102063.50;5022142;28;20041;-34
2023/05/14 08:07:38;;;;;;;41.33;23.08;;;;;;;21.27;53.57;102063.38;5023993;28;20053;-34
2023/05/14 08:10:06;;;;;;;39.75;23.75;;;;;;;21.28;53.54;102063.22;5023611;28;20045;-34
2023/05/14 08:12:33;;;;;;;42.80;23.23;;;;;;;21.29;53.35;102056.81;5022495;28;20429;-34
2023/05/14 08:14:59;;;;;;;39.10;20.63;;;;;;;21.31;53.20;102054.00;5022753;28;20141;-35
2023/05/14 08:17:26;;;;;;;37.38;21.00;;;;;;;21.31;53.42;102054.00;5019211;28;20053;-34
2023/05/14 08:19:53;;;;;;;39.75;21.08;;;;;;;21.32;53.36;102058.38;5020605;28;20065;-36
2023/05/14 08:22:20;;;;;;;38.08;20.38;;;;;;;21.33;53.49;102055.56;5019767;28;20055;-34
2023/05/14 08:24:47;;;;;;;34.45;19.65;;;;;;;21.35;53.43;102052.72;5019433;28;20080;-34
2023/05/14 08:27:15;;;;;;;35.28;19.13;;;;;;;21.36;53.42;102055.28;5016131;28;20049;-35
2023/05/14 08:29:41;;;;;;;33.08;18.42;;;;;;;21.39;53.58;102057.69;5021078;28;20056;-34
2023/05/14 08:32:08;;;;;;;31.38;16.38;;;;;;;21.40;53.79;102059.38;5021979;28;20064;-34
2023/05/14 08:34:48;;;;;;;29.00;17.00;;;;;;;21.43;53.61;102061.78;5018782;28;20052;-34
2023/05/14 08:37:15;;;;;;;29.20;17.80;;;;;;;21.44;53.91;102058.09;5022674;28;20064;-34
2023/05/14 08:39:41;;;;;;;32.30;17.05;;;;;;;21.46;53.56;102049.84;5019606;28;20148;-34
2023/05/14 08:42:11;;;;;;;30.23;17.17;;;;;;;21.48;53.70;102055.94;5022222;28;20437;-34
2023/05/14 08:44:47;;;;;;;32.22;15.68;;;;;;;21.49;53.56;102046.84;5022666;28;20044;-34
2023/05/14 08:47:16;;;;;;;32.65;13.50;;;;;;;21.52;53.85;102049.25;5017571;28;20068;-34
2023/05/14 08:49:45;;;;;;;23.42;13.73;;;;;;;21.52;53.50;102037.63;5021609;28;20045;-34
2023/05/14 08:52:12;;;;;;;35.75;15.38;;;;;;;21.53;53.41;102037.47;5022527;28;20441;-34
2023/05/14 08:54:39;;;;;;;22.85;13.13;;;;;;;21.56;53.24;102036.34;5020152;28;20041;-34
2023/05/14 08:57:08;;;;;;;23.75;13.80;;;;;;;21.56;53.33;102033.63;5024052;28;20045;-34
2023/05/14 08:59:35;;;;;;;28.60;13.15;;;;;;;21.58;53.48;102037.84;5021811;28;20049;-35
2023/05/14 09:02:04;;;;;;;40.92;13.52;;;;;;;21.59;53.51;102036.88;5022519;28;20553;-34
2023/05/14 09:04:33;;;;;;;50.03;15.05;;;;;;;21.62;53.50;102035.72;5023097;28;20499;-35
2023/05/14 09:07:01;;;;;;;131.18;19.77;;;;;;;21.61;53.88;102029.47;5018440;28;20390;-35
2023/05/14 09:09:28;;;;;;;85.70;16.83;;;;;;;21.63;53.88;102032.91;5015574;28;20479;-34
2023/05/14 09:11:55;;;;;;;61.85;14.77;;;;;;;21.65;53.89;102033.56;5018297;28;20055;-35
2023/05/14 09:14:22;;;;;;;42.05;13.50;;;;;;;21.67;53.69;102022.66;5018570;28;20082;-34
2023/05/14 09:16:50;;;;;;;35.03;13.05;;;;;;;21.67;53.91;102025.34;5014907;28;20060;-35
2023/05/14 09:19:18;;;;;;;41.55;13.18;;;;;;;21.68;53.53;102025.19;5018974;28;20843;-34
2023/05/14 09:21:46;;;;;;;41.92;13.02;;;;;;;21.71;53.77;102021.34;5018857;28;20046;-35
2023/05/14 09:24:24;;;;;;;41.15;12.10;;;;;;;21.72;53.71;102020.34;5019324;28;20159;-35
2023/05/14 09:26:55;;;;;;;89.25;52.80;;;;;;;21.73;53.27;102019.34;5025034;28;20666;-35
2023/05/14 09:29:27;;;;;;;57.35;31.45;;;;;;;21.72;52.66;102019.50;5018853;28;20958;-35
2023/05/14 09:31:55;;;;;;;49.35;25.35;;;;;;;21.71;52.51;102017.78;5015457;28;20051;-35
2023/05/14 09:34:29;;;;;;;36.42;17.65;;;;;;;21.67;51.72;102011.88;5022918;28;20084;-35
2023/05/14 09:37:00;;;;;;;30.83;14.07;;;;;;;21.66;51.85;102011.00;5020068;28;20060;-35
2023/05/14 09:39:28;;;;;;;24.15;12.60;;;;;;;21.68;51.57;102018.94;5019796;28;20432;-35
2023/05/14 09:41:55;;;;;;;20.52;10.98;;;;;;;21.69;51.50;102005.28;5023264;28;20136;-35
2023/05/14 09:44:22;;;;;;;29.42;13.65;;;;;;;21.73;52.04;102005.00;5019928;28;20056;-35
2023/05/14 09:46:51;;;;;;;27.38;13.75;;;;;;;21.78;52.38;102008.09;5014818;28;20157;-35
2023/05/14 09:49:18;;;;;;;31.30;14.02;;;;;;;21.83;52.23;102005.78;5017769;28;20057;-35
2023/05/14 09:51:45;;;;;;;26.25;13.73;;;;;;;21.89;52.13;102005.19;5023713;28;20406;-35
2023/05/14 09:54:11;;;;;;;23.60;12.80;;;;;;;21.93;52.30;101999.34;5017890;28;20048;-36
2023/05/14 09:56:38;;;;;;;21.63;12.13;;;;;;;21.98;52.32;101993.47;5018642;28;20441;-35
2023/05/14 09:59:05;;;;;;;21.85;11.05;;;;;;;22.01;52.32;101993.19;5022798;28;20060;-35
2023/05/14 10:01:32;;;;;;;25.13;12.27;;;;;;;22.06;52.06;101998.97;5025361;28;20104;-35
2023/05/14 10:04:02;;;;;;;23.38;11.10;;;;;;;22.09;52.11;102000.53;5021907;28;20057;-35
2023/05/14 10:06:32;;;;;;;23.42;10.20;;;;;;;22.13;52.20;102000.09;5019009;28;20447;-35
2023/05/14 10:09:04;;;;;;;29.38;9.80;;;;;;;22.16;52.08;102002.50;5023345;28;20303;-35
2023/05/14 10:11:35;;;;;;;20.38;10.25;;;;;;;22.19;51.95;101998.63;5020440;28;20057;-35
2023/05/14 10:14:07;;;;;;;22.33;9.80;;;;;;;22.22;51.95;102001.03;5020025;28;20136;-35
2023/05/14 10:16:37;;;;;;;19.95;9.43;;;;;;;22.25;51.83;101994.47;5021210;28;20053;-35
2023/05/14 10:19:08;;;;;;;17.38;10.00;;;;;;;22.29;52.41;101993.19;5021062;28;20061;-35
2023/05/14 10:21:36;;;;;;;17.08;9.20;;;;;;;22.32;52.10;101992.88;5024007;28;20053;-35
2023/05/14 10:24:04;;;;;;;22.83;8.40;;;;;;;22.34;52.60;101989.00;5024500;28;20053;-34
2023/05/14 10:26:32;;;;;;;29.02;8.30;;;;;;;22.37;52.30;101991.41;5024716;28;20061;-35
2023/05/14 10:28:59;;;;;;;14.00;7.20;;;;;;;22.38;52.26;101990.38;5025289;28;20520;-34
2023/05/14 10:31:58;;;;;;;15.20;7.65;;;;;;;22.40;52.46;101984.84;5021532;28;20089;-35
2023/05/14 10:34:33;;;;;;;15.88;7.32;;;;;;;22.45;51.89;101987.06;4999193;28;20057;-35
2023/05/14 10:37:01;;;;;;;17.10;7.55;;;;;;;22.48;52.18;101981.38;5022552;28;20402;-35
2023/05/14 10:39:49;;;;;;;18.52;8.23;;;;;;;22.49;51.95;101981.22;5023712;28;20444;-35
2023/05/14 10:42:24;;;;;;;22.00;8.25;;;;;;;22.53;52.36;101984.44;5023625;28;20053;-36
2023/05/14 10:44:57;;;;;;;33.40;9.30;;;;;;;22.55;52.30;101974.31;5026601;28;20080;-36
2023/05/14 10:47:27;;;;;;;29.52;9.77;;;;;;;22.56;52.03;101976.88;5025313;28;20500;-35
2023/05/14 10:49:57;;;;;;;28.63;10.40;;;;;;;22.57;52.27;101966.91;5024544;28;20433;-35
2023/05/14 10:52:25;;;;;;;29.00;9.13;;;;;;;22.59;52.31;101981.97;5025275;28;20063;-36
2023/05/14 10:54:54;;;;;;;16.42;7.53;;;;;;;22.59;51.46;101976.56;5021726;28;20052;-35
2023/05/14 10:57:23;;;;;;;16.65;7.15;;;;;;;22.56;51.36;101971.47;5027114;28;20131;-35
2023/05/14 10:59:53;;;;;;;20.23;8.93;;;;;;;22.56;51.34;101974.19;5029815;28;20091;-35
2023/05/14 11:02:33;;;;;;;18.27;8.70;;;;;;;22.56;51.35;101965.22;5023537;28;20449;-35
2023/05/14 11:05:07;;;;;;;27.10;7.93;;;;;;;22.57;51.19;101962.34;5025079;28;20042;-36
2023/05/14 11:07:35;;;;;;;26.10;9.10;;;;;;;22.59;51.19;101962.19;5022892;28;20049;-35
2023/05/14 11:10:09;;;;;;;12.80;6.32;;;;;;;22.59;50.92;101956.78;5022419;28;20081;-36
2023/05/14 11:12:38;;;;;;;17.27;7.03;;;;;;;22.60;51.27;101962.06;5021667;28;20142;-36
2023/05/14 11:15:08;;;;;;;15.45;6.95;;;;;;;22.61;51.11;101955.63;5022683;28;20053;-35
2023/05/14 11:17:35;;;;;;;19.95;7.03;;;;;;;22.60;50.80;101956.66;5021653;28;20133;-35